Great Neck, NY (11020)

8:16 AM EST on December 09, 2016 (GMT -0500)
Floral Park, The Original 11001 Wx Site | | Change Station

Elev 103 ft 40.73 °N, 73.71 °W | Updated 8 seconds ago

Clear
Clear
31.6 °F
Feels Like 28 °F
N
4.0
Wind Variable Wind from North
Gusts 12.0 mph

Today
High -- | Low -- °F
--% Chance of Precip.
Yesterday
High -- | Low -- °F
Precip. -- in
Pressure 30.09 in
Visibility 10.0 miles
Clouds Few 5000 ft
Windchill 28 °F
Dew Point 21 °F
Humidity 65%
Rainfall 0.00 in
Snow Depth Not available.
7:07 AM 4:27 PM
Waxing Gibbous, 74% visible
METAR KLGA 091251Z 27010KT 10SM FEW050 01/M07 A3009 RMK AO2 SLP187 T00111072
Pressure 30.09 in
Visibility 10.0 miles
Clouds Few 5000 ft
Windchill 28 °F
Dew Point 21 °F
Humidity 65%
Rainfall 0.00 in
Snow Depth Not available.
7:07 AM 4:27 PM
Waxing Gibbous, 74% visible
METAR KLGA 091251Z 27010KT 10SM FEW050 01/M07 A3009 RMK AO2 SLP187 T00111072

10-Day Weather Forecast

Almanac

Astronomy

Dec. 09, 2016 Rise Set
Actual Time
Civil Twilight
Nautical Twilight
Astronomical Twilight
Moon
Length of Visible Light
Length of Day
Tomorrow will be .
, % of the Moon is Illuminated

Today's Extremes

State Highs State Lows

Community

WunderPhotos

Upload Photos

1,956,407 photos uploaded!

WunderBlog® & News

Nearby

Air Quality

  Air Quality AQ Index Pollutant
Not available.

Snow Depth

Station Depth Elevation

Earthquake Activity

City Distance Mag. Time & Date
Minimum magnitude displayed is 2.5.

Coastal Water Temperatures

Place Temperature

Stations

Nearby Weather Stations

Station Location Temp. Windchill Dew Point Humidity Wind Precip. Elev Updated Type
                   

Watches & Warnings

There are currently no watches in effect.